Latest Weather Observations for Gold Coast Seaway

IDQ60901

Issued at 12:41 pm EST Tuesday 26 July 2016 (issued every 10 minutes, with the page automatically refreshed every 10 minutes)

About weather observations | Map of Brisbane area stations | Latest observations for Brisbane area | Other Formats
Station Details ID: 040764 Name: GOLD COAST SEAWAY Lat: -27.94 Lon: 153.43 Height: 2.98 m
Data from the previous 72 hours. | See also: Recent months at Gold Coast Seaway
Date/Time
EST
Temp
°C
App
Temp
°C
Dew
Point
°C
Rel
Hum
%
Delta-T
°C
Wind Press
QNH
hPa
Press
MSL
hPa
Rain since
9am
mm
Dir  Spd
km/h
Gust
km/h
Spd
kts
Gust
kts
26/12:30pm 19.8 16.9 2.6 32 8.0 ESE 7 9 4 5 1017.3 1017.3 0.0
26/12:00pm 18.7 15.9 3.3 36 7.2 E 7 9 4 5 1018.0 1018.0 0.0
26/11:30am 18.6 16.2 2.0 33 7.5 NW 4 7 2 4 1018.5 1018.5 0.0
26/11:00am 17.3 15.1 3.2 39 6.5 NW 4 7 2 4 1018.6 1018.6 0.0
26/10:30am 17.0 14.6 4.3 43 6.0 NW 6 9 3 5 1018.7 1018.7 0.0
26/10:00am 16.7 13.9 3.1 40 6.2 NW 7 7 4 4 1018.9 1018.9 0.0
26/09:30am 15.7 13.5 6.2 53 4.6 NW 7 9 4 5 1019.0 1019.0 0.0
26/09:00am 15.3 12.7 7.6 60 3.8 NW 11 13 6 7 1019.0 1019.0 0.0
26/08:30am 14.7 12.0 5.8 55 4.2 NW 9 13 5 7 1018.7 1018.7 0.0
26/08:00am 14.4 11.2 6.7 60 3.7 NNW 13 15 7 8 1018.4 1018.4 0.0
26/07:30am 14.6 11.4 4.9 52 4.5 NW 11 13 6 7 1018.3 1018.3 0.0
26/07:00am 14.0 10.2 3.8 50 4.6 WNW 13 17 7 9 1018.1 1018.1 0.0
26/06:30am 13.7 10.1 4.8 55 4.1 NW 13 15 7 8 1018.1 1018.1 0.0
26/06:00am 13.2 10.2 6.1 62 3.4 NW 11 15 6 8 1017.7 1017.7 0.0
26/05:30am 13.3 10.5 7.1 66 3.0 NW 11 13 6 7 1017.7 1017.7 0.0
26/05:00am 12.9 9.6 6.3 64 3.1 N 13 17 7 9 1017.3 1017.3 0.0
26/04:30am 14.1 10.5 5.2 55 4.2 NW 13 17 7 9 1016.9 1016.9 0.0
26/04:00am 14.1 9.9 5.7 57 4.0 NW 17 19 9 10 1017.0 1017.0 0.0
26/03:30am 14.3 11.8 6.4 59 3.8 NW 9 13 5 7 1016.9 1016.9 0.0
26/03:00am 14.6 11.2 5.7 55 4.2 NW 13 15 7 8 1016.8 1016.8 0.0
26/02:30am 15.1 11.4 6.1 55 4.3 NW 15 17 8 9 1017.3 1017.3 0.0
26/02:00am 15.3 11.6 6.1 54 4.4 NW 15 20 8 11 1017.2 1017.2 0.0
26/01:30am 15.5 11.5 4.8 49 5.0 NW 15 19 8 10 1017.6 1017.6 0.0
26/01:00am 14.3 11.7 6.2 58 3.9 WNW 9 13 5 7 1017.4 1017.4 0.0
26/12:30am 15.3 12.2 7.3 59 4.0 WNW 13 13 7 7 1017.8 1017.8 0.0
26/12:00am 14.8 12.3 8.1 64 3.3 NW 11 13 6 7 1017.8 1017.8 0.0
 
Date/Time
EST
Temp
°C
App
Temp
°C
Dew
Point
°C
Rel
Hum
%
Delta-T
°C
Wind Press
QNH
hPa
Press
MSL
hPa
Rain since
9am
mm
Dir  Spd
km/h
Gust
km/h
Spd
kts
Gust
kts
25/11:30pm 14.6 12.9 8.5 67 3.1 WNW 7 11 4 6 1017.6 1017.6 0.0
25/11:00pm 14.0 12.7 7.8 66 3.1 SSW 4 7 2 4 1017.6 1017.6 0.0
25/10:30pm 14.7 13.5 8.0 64 3.3 SSW 4 9 2 5 1017.6 1017.6 0.0
25/10:00pm 15.2 13.1 8.2 63 3.5 SW 9 11 5 6 1017.5 1017.5 0.0
25/09:30pm 15.0 13.0 8.7 66 3.2 SW 9 13 5 7 1017.6 1017.6 0.0
25/09:00pm 14.9 12.8 8.4 65 3.3 SW 9 13 5 7 1017.5 1017.5 0.0
25/08:30pm 15.5 13.1 8.5 63 3.5 WSW 11 13 6 7 1017.4 1017.4 0.0
25/08:00pm 15.6 13.1 8.4 62 3.6 SW 11 15 6 8 1017.4 1017.4 0.0
25/07:30pm 15.3 12.8 8.3 63 3.5 SSW 11 15 6 8 1017.1 1017.1 0.0
25/07:00pm 15.3 13.2 8.3 63 3.5 SW 9 13 5 7 1016.9 1016.9 0.0
25/06:30pm 16.2 14.1 8.2 59 4.0 N 9 11 5 6 1016.6 1016.6 0.0
25/06:00pm 17.5 14.6 8.1 54 4.8 N 13 15 7 8 1016.1 1016.1 0.0
25/05:30pm 18.1 15.1 9.2 56 4.6 NE 15 19 8 10 1015.7 1015.7 0.0
25/05:00pm 18.8 15.4 9.3 54 5.0 NE 17 22 9 12 1015.4 1015.4 0.0
25/04:30pm 21.0 17.2 4.1 33 8.2 N 13 17 7 9 1015.2 1015.2 0.0
25/04:00pm 21.1 17.3 3.8 32 8.3 N 13 15 7 8 1015.1 1015.1 0.0
25/03:30pm 21.4 17.2 4.0 32 8.4 NNW 15 20 8 11 1014.8 1014.8 0.0
25/03:00pm 21.3 17.0 3.0 30 8.7 NNW 15 20 8 11 1014.8 1014.8 0.0
25/02:30pm 21.1 16.5 3.8 32 8.3 NW 17 22 9 12 1014.8 1014.8 0.0
25/02:00pm 21.3 16.9 4.8 34 8.1 NW 17 20 9 11 1015.0 1015.0 0.0
25/01:30pm 20.6 15.9 3.3 32 8.2 NW 17 22 9 12 1015.2 1015.2 0.0
25/01:00pm 20.9 16.7 4.0 33 8.1 NW 15 24 8 13 1015.4 1015.4 0.0
25/12:30pm 20.6 16.7 3.3 32 8.2 WNW 13 19 7 10 1016.1 1016.1 0.0
25/12:00pm 20.0 14.9 2.8 32 8.0 NW 19 26 10 14 1016.4 1016.4 0.0
25/11:30am 19.8 14.4 2.2 31 8.1 WNW 20 26 11 14 1016.7 1016.7 0.0
25/11:00am 19.4 14.2 2.3 32 7.9 WNW 19 26 10 14 1017.3 1017.3 0.0
25/10:30am 19.3 15.1 1.8 31 8.0 W 13 20 7 11 1017.5 1017.5 0.0
25/10:00am 19.2 15.4 1.7 31 7.9 WSW 11 15 6 8 1018.1 1018.1 0.0
25/09:30am 18.3 12.9 1.3 32 7.6 WNW 19 24 10 13 1018.1 1018.1 0.0
25/09:00am 18.0 12.3 0.6 31 7.6 WNW 20 26 11 14 1017.8 1017.8 0.0
25/08:30am 17.2 12.0 2.4 37 6.7 WNW 19 22 10 12 1017.8 1017.8 0.0
25/08:00am 15.9 12.7 4.9 48 5.2 WNW 11 13 6 7 1017.5 1017.5 0.0
25/07:30am 14.5 11.7 5.3 54 4.3 WNW 9 11 5 6 1017.3 1017.3 0.0
25/07:00am 13.7 12.0 5.8 59 3.7 SSW 4 9 2 5 1016.9 1016.9 0.0
25/06:30am 13.7 10.8 6.6 62 3.4 SSW 11 11 6 6 1016.7 1016.7 0.0
25/06:00am 14.3 11.9 7.1 62 3.5 WSW 9 11 5 6 1015.9 1015.9 0.0
25/05:30am 14.7 13.5 8.0 64 3.3 WNW 4 9 2 5 1015.7 1015.7 0.0
25/05:00am 14.9 12.8 8.4 65 3.3 SW 9 13 5 7 1015.2 1015.2 0.0
25/04:30am 15.1 13.4 8.3 64 3.4 WSW 7 9 4 5 1014.9 1014.9 0.0
25/04:00am 15.5 12.6 9.8 69 3.0 WNW 15 17 8 9 1014.6 1014.6 0.0
25/03:30am 15.0 12.3 10.4 74 2.4 WNW 15 17 8 9 1014.8 1014.8 0.0
25/03:00am 14.3 12.3 10.3 77 2.1 NW 11 11 6 6 1014.9 1014.9 0.0
25/02:30am 13.9 12.5 9.5 75 2.3 NW 7 11 4 6 1014.9 1014.9 0.0
25/02:00am 14.4 12.6 10.8 79 1.9 NNW 11 13 6 7 1014.9 1014.9 0.0
25/01:30am 14.9 13.6 11.1 78 2.0 NW 9 11 5 6 1015.0 1015.0 0.0
25/01:00am 15.0 13.1 10.6 75 2.3 WNW 11 11 6 6 1015.1 1015.1 0.0
25/12:30am 15.1 13.4 11.1 77 2.1 WNW 11 13 6 7 1015.1 1015.1 0.0
25/12:00am 15.0 13.6 10.8 76 2.2 WNW 9 11 5 6 1015.1 1015.1 0.0
 
Date/Time
EST
Temp
°C
App
Temp
°C
Dew
Point
°C
Rel
Hum
%
Delta-T
°C
Wind Press
QNH
hPa
Press
MSL
hPa
Rain since
9am
mm
Dir  Spd
km/h
Gust
km/h
Spd
kts
Gust
kts
24/11:30pm 15.1 14.0 11.9 81 1.7 WNW 9 11 5 6 1015.2 1015.2 0.0
24/11:00pm 14.4 12.6 11.0 80 1.8 WNW 11 11 6 6 1015.2 1015.2 0.0
24/10:30pm 14.1 12.6 10.7 80 1.8 W 9 11 5 6 1015.3 1015.3 0.0
24/10:00pm 15.0 13.2 10.8 76 2.2 WNW 11 13 6 7 1015.1 1015.1 0.0
24/09:30pm 15.1 13.0 11.1 77 2.1 W 13 15 7 8 1015.0 1015.0 0.0
24/09:00pm 14.5 13.1 10.9 79 1.9 WNW 9 11 5 6 1014.5 1014.5 0.0
24/08:30pm 14.6 13.2 11.0 79 1.9 WNW 9 11 5 6 1014.8 1014.8 0.0
24/08:00pm 14.9 13.6 11.3 79 1.9 WNW 9 11 5 6 1014.9 1014.9 0.0
24/07:30pm 14.9 13.9 11.1 78 2.0 WNW 7 9 4 5 1014.7 1014.7 0.0
24/07:00pm 14.9 13.8 10.7 76 2.2 WNW 7 9 4 5 1014.5 1014.5 0.0
24/06:30pm 16.2 14.9 11.2 72 2.7 NW 9 11 5 6 1014.4 1014.4 0.0
24/06:00pm 17.0 15.7 11.3 69 3.1 N 9 11 5 6 1013.9 1013.9 0.0
24/05:30pm 17.2 14.5 10.3 64 3.7 NNE 15 19 8 10 1013.5 1013.5 0.0
24/05:00pm 17.9 15.1 10.0 60 4.2 NNE 15 17 8 9 1013.3 1013.3 0.0
24/04:30pm 18.9 15.6 9.7 55 4.9 NNE 17 20 9 11 1013.1 1013.1 0.0
24/04:00pm 19.1 15.8 9.6 54 5.0 NE 17 20 9 11 1012.9 1012.9 0.0
24/03:30pm 19.2 15.8 9.1 52 5.3 NE 17 19 9 10 1013.0 1013.0 0.0
24/03:00pm 19.6 16.2 9.2 51 5.5 ENE 17 20 9 11 1013.2 1013.2 0.0
24/02:30pm 19.7 16.5 8.4 48 5.9 ENE 15 17 8 9 1013.4 1013.4 0.0
24/02:00pm 19.8 16.9 6.5 42 6.7 ENE 11 13 6 7 1014.0 1014.0 0.0
24/01:30pm 20.1 17.0 5.4 38 7.2 ENE 11 13 6 7 1014.5 1014.5 0.0
24/01:00pm 19.8 17.0 5.1 38 7.2 ESE 9 11 5 6 1014.9 1014.9 0.0
24/12:30pm 19.6 16.9 3.7 35 7.5 SE 7 9 4 5 1015.2 1015.2 0.0
24/12:00pm 19.9 17.2 2.7 32 8.0 E 6 9 3 5 1015.7 1015.7 0.0
24/11:30am 20.0 17.3 3.7 34 7.7 SE 7 11 4 6 1016.2 1016.2 0.0
24/11:00am 19.6 16.4 3.3 34 7.6 ESE 9 13 5 7 1016.7 1016.7 0.0
24/10:30am 20.5 16.5 2.8 31 8.3 SE 13 15 7 8 1016.9 1016.9 0.0
24/10:00am 19.9 15.3 1.4 29 8.4 SE 15 19 8 10 1017.2 1017.2 0.0
24/09:30am 20.0 16.0 2.8 32 8.0 SE 13 17 7 9 1017.0 1017.0 0.0
24/09:00am 18.9 17.8 6.7 45 6.1 SW 2 7 1 4 1016.7 1016.7 0.0
24/08:30am 18.2 17.1 5.1 42 6.3 CALM 0 0 0 0 1016.6 1016.6 0.0
24/08:00am 15.2 13.0 6.0 54 4.4 SW 7 9 4 5 1016.3 1016.3 0.0
24/07:30am 14.8 11.9 4.8 51 4.7 WSW 9 11 5 6 1016.3 1016.3 0.0
24/07:00am 13.7 10.7 4.3 53 4.3 SW 9 11 5 6 1015.7 1015.7 0.0
24/06:30am 13.3 10.8 4.5 55 4.0 SW 7 9 4 5 1015.3 1015.3 0.0
24/06:00am 14.2 11.2 3.9 50 4.7 WSW 9 11 5 6 1015.0 1015.0 0.0
24/05:30am 13.8 11.1 3.6 50 4.6 W 7 11 4 6 1014.0 1014.0 0.0
24/05:00am 14.7 11.1 3.2 46 5.2 W 11 13 6 7 1013.6 1013.6 0.0
24/04:30am 14.8 11.9 2.4 43 5.5 WNW 7 9 4 5 1013.6 1013.6 0.0
24/04:00am 15.9 12.1 2.0 39 6.2 W 11 13 6 7 1013.8 1013.8 0.0
24/03:30am 16.3 12.2 2.0 38 6.4 W 13 15 7 8 1013.7 1013.7 0.0
24/03:00am 16.3 12.6 2.3 39 6.3 WSW 11 15 6 8 1013.5 1013.5 0.0
24/02:30am 16.5 13.2 2.5 39 6.3 SW 9 17 5 9 1013.5 1013.5 0.0
24/02:00am 16.7 12.4 3.4 41 6.1 W 15 26 8 14 1013.0 1013.0 0.0
24/01:30am 16.4 13.2 5.1 47 5.4 WSW 11 13 6 7 1013.4 1013.4 0.0
24/01:00am 15.6 12.6 4.3 47 5.3 SW 9 13 5 7 1013.3 1013.3 0.0
24/12:30am 15.4 12.4 3.9 46 5.3 SSW 9 11 5 6 1013.3 1013.3 0.0
24/12:00am 16.6 13.1 3.7 42 6.0 WSW 11 17 6 9 1012.9 1012.9 0.0
 
Date/Time
EST
Temp
°C
App
Temp
°C
Dew
Point
°C
Rel
Hum
%
Delta-T
°C
Wind Press
QNH
hPa
Press
MSL
hPa
Rain since
9am
mm
Dir  Spd
km/h
Gust
km/h
Spd
kts
Gust
kts
23/11:30pm 17.3 14.0 2.5 37 6.7 WSW 9 17 5 9 1012.8 1012.8 0.0
23/11:00pm 19.1 16.2 2.5 33 7.7 SW 7 15 4 8 1012.4 1012.4 0.0
23/10:30pm 18.7 14.7 2.9 35 7.3 W 13 19 7 10 1012.2 1012.2 0.0
23/10:00pm 20.0 13.1 2.8 32 8.0 W 28 33 15 18 1011.6 1011.6 0.0
23/09:30pm 20.4 16.3 2.3 30 8.4 WSW 13 19 7 10 1012.1 1012.1 0.0
23/09:00pm 21.1 15.9 2.4 29 8.7 W 19 28 10 15 1011.7 1011.7 0.0
23/08:30pm 21.8 17.0 2.5 28 9.1 W 17 26 9 14 1011.5 1011.5 0.0
23/08:00pm 22.4 18.1 3.5 29 9.1 WSW 15 30 8 16 1011.1 1011.1 0.0
23/07:30pm 22.7 17.0 4.7 31 8.9 W 24 35 13 19 1010.2 1010.2 0.0
23/07:00pm 23.5 19.1 7.2 35 8.5 W 20 30 11 16 1009.9 1009.9 0.0
23/06:30pm 24.2 17.4 7.8 35 8.7 WNW 33 43 18 23 1008.9 1008.9 0.0
23/06:00pm 24.7 18.6 8.2 35 8.8 WNW 30 35 16 19 1008.5 1008.5 0.0
23/05:30pm 25.5 19.0 8.9 35 9.0 WNW 33 41 18 22 1008.1 1008.1 0.0
23/05:00pm 26.3 19.9 9.2 34 9.4 WNW 33 41 18 22 1007.6 1007.6 0.0
23/04:30pm 27.3 20.2 9.6 33 9.8 WNW 37 46 20 25 1007.3 1007.3 0.0
23/04:00pm 27.9 20.1 9.7 32 10.2 WNW 41 54 22 29 1006.9 1006.9 0.0
23/03:41pm 28.1 22.4 11.2 35 9.7 W 32 50 17 27 1006.7 1006.7 0.0
23/03:30pm 28.0 21.8 11.5 35 9.5 WNW 35 50 19 27 1006.6 1006.6 0.0
23/03:00pm 28.0 22.2 10.7 34 9.8 W 32 46 17 25 1006.5 1006.5 0.0
23/02:30pm 28.6 21.8 10.8 33 10.1 W 37 50 20 27 1006.1 1006.1 0.0
23/02:13pm 28.6 22.2 10.8 33 10.1 WNW 35 54 19 29 1006.1 1006.1 0.0
23/02:00pm 28.7 23.3 12.2 36 9.6 WNW 32 48 17 26 1006.2 1006.2 0.0
23/01:30pm 28.2 22.2 12.1 37 9.3 WNW 35 48 19 26 1006.2 1006.2 0.0
23/01:28pm 28.2 22.2 12.1 37 9.3 WNW 35 46 19 25 1006.2 1006.2 0.0
23/01:00pm 28.3 22.3 13.4 40 8.8 WNW 37 48 20 26 1006.3 1006.3 0.0

Latest Capital City Observations: Canberra | Sydney | Melbourne | Brisbane | Adelaide | Perth | Hobart | Darwin

Other Formats:

Comma delimited format used in spreadsheet applications
http://www.bom.gov.au/fwo/IDQ60901/IDQ60901.94580.axf

JavaScript Object Notation format (JSON) in row-major order
http://www.bom.gov.au/fwo/IDQ60901/IDQ60901.94580.json